Apple Springs, Texas
Current Conditions -  °F | °C
As of 7:53 PM on Wednesday 26 Nov 2014 (Local Time) from KLFK Reporting Station
Clear Clear  
Wind Chill: 51°   Ceiling: Unl
Heat Index: 51°   Visibility: 10mi
Dew Point: 40°   Wind: 0mph
Humidity: 66%   Direction: NA
Pressure: 30.25"   Gusts: NA
Location:  31.22°N, 94.97°W
Report Text: KLFK 270153Z AUTO 00000KT 10SM CLR 11/04 A3025 RMK AO2 SLP243 T01060044
Loading
Personal Weather Stations






























Interactive Weather Map New forecast layout! Learn more

10-Day Weather Forecast

Advertisements
Track Severe Weather on mobile